createdAt,value
2022-11-14T00:00:26.572Z,12.00
2022-11-14T00:02:54.490Z,12.40
2022-11-14T00:05:23.837Z,12.17
2022-11-14T00:07:51.731Z,12.53
2022-11-14T00:10:19.835Z,12.20
2022-11-14T00:12:47.727Z,13.10
2022-11-14T00:15:15.786Z,13.47
2022-11-14T00:17:43.677Z,12.50
2022-11-14T00:20:12.572Z,13.47
2022-11-14T00:22:41.923Z,11.97
2022-11-14T00:25:10.946Z,11.80
2022-11-14T00:27:38.805Z,12.43
2022-11-14T00:30:07.693Z,13.10
2022-11-14T00:32:35.551Z,13.33
2022-11-14T00:35:03.477Z,12.27
2022-11-14T00:37:31.425Z,12.17
2022-11-14T00:40:00.701Z,13.00
2022-11-14T00:42:28.639Z,11.90
2022-11-14T00:44:56.511Z,12.80
2022-11-14T00:47:24.405Z,12.27
2022-11-14T00:49:52.355Z,12.73
2022-11-14T00:52:20.210Z,12.17
2022-11-14T00:54:48.083Z,11.47
2022-11-14T00:57:17.352Z,12.57
2022-11-14T00:59:45.226Z,11.83
2022-11-14T01:02:13.134Z,12.27
2022-11-14T01:04:41.128Z,11.20
2022-11-14T01:07:09.023Z,11.53
2022-11-14T01:09:36.989Z,11.60
2022-11-14T01:12:05.363Z,11.13
2022-11-14T01:14:34.634Z,11.87
2022-11-14T01:17:02.487Z,11.50
2022-11-14T01:19:30.406Z,10.53
2022-11-14T01:22:01.810Z,11.33
2022-11-14T01:24:33.886Z,11.30
2022-11-14T01:27:01.834Z,11.77
2022-11-14T01:29:29.885Z,11.77
2022-11-14T01:31:59.158Z,11.23
2022-11-14T01:34:27.158Z,10.90
2022-11-14T01:36:55.113Z,11.20
2022-11-14T01:39:23.085Z,11.70
2022-11-14T01:41:50.954Z,11.33
2022-11-14T01:44:39.104Z,11.53
2022-11-14T01:47:08.433Z,11.37
2022-11-14T01:49:38.455Z,11.43
2022-11-14T01:52:07.283Z,12.37
2022-11-14T01:54:37.060Z,11.80
2022-11-14T01:57:05.280Z,12.37
2022-11-14T01:59:34.451Z,11.87
2022-11-14T02:02:05.102Z,11.70
2022-11-14T02:04:35.341Z,11.50
2022-11-14T02:07:04.490Z,12.53
2022-11-14T02:09:34.011Z,11.80
2022-11-14T02:12:02.089Z,12.20
2022-11-14T02:14:29.948Z,12.53
2022-11-14T02:17:22.716Z,11.97
2022-11-14T02:19:48.840Z,12.53
2022-11-14T02:22:18.122Z,12.93
2022-11-14T02:24:46.099Z,13.10
2022-11-14T02:27:14.192Z,12.73
2022-11-14T02:29:42.065Z,12.70
2022-11-14T02:32:11.026Z,13.27
2022-11-14T02:34:39.180Z,12.77
2022-11-14T02:37:07.313Z,12.57
2022-11-14T02:39:36.600Z,12.50
2022-11-14T02:42:04.508Z,13.27
2022-11-14T02:44:32.416Z,12.80
2022-11-14T02:47:00.279Z,11.87
2022-11-14T02:49:28.697Z,11.60
2022-11-14T02:51:56.570Z,11.83
2022-11-14T02:54:24.429Z,12.37
2022-11-14T02:56:53.683Z,12.00
2022-11-14T02:59:21.616Z,12.93
2022-11-14T03:01:49.523Z,12.57
2022-11-14T03:04:17.479Z,12.40
2022-11-14T03:06:45.488Z,13.30
2022-11-14T03:09:13.515Z,12.23
2022-11-14T03:11:41.388Z,12.50
2022-11-14T03:14:10.728Z,11.87
2022-11-14T03:16:38.629Z,11.77
2022-11-14T03:19:06.542Z,11.70
2022-11-14T03:21:34.443Z,11.57
2022-11-14T03:24:02.313Z,11.20
2022-11-14T03:26:30.341Z,10.20
2022-11-14T03:28:58.216Z,9.73
2022-11-14T03:31:27.538Z,9.87
2022-11-14T03:33:55.440Z,8.97
2022-11-14T03:36:23.324Z,7.83
2022-11-14T03:38:51.188Z,8.30
2022-11-14T03:41:19.064Z,7.57
2022-11-14T03:43:47.005Z,7.53
2022-11-14T03:46:14.872Z,7.13
2022-11-14T03:48:44.129Z,7.10
2022-11-14T03:51:12.042Z,6.50
2022-11-14T03:53:39.898Z,6.67
2022-11-14T03:56:08.331Z,6.63
2022-11-14T03:58:36.251Z,6.60
2022-11-14T04:01:04.519Z,6.47
2022-11-14T04:03:32.450Z,6.03
2022-11-14T04:06:01.853Z,6.20
2022-11-14T04:08:30.077Z,7.13
2022-11-14T04:10:58.209Z,7.00
2022-11-14T04:13:26.127Z,6.93
2022-11-14T04:15:57.260Z,6.70
2022-11-14T04:18:25.144Z,6.40
2022-11-14T04:20:53.094Z,6.40
2022-11-14T04:23:22.386Z,6.33
2022-11-14T04:25:50.339Z,6.60
2022-11-14T04:28:18.270Z,6.50
2022-11-14T04:30:46.255Z,6.40
2022-11-14T04:33:14.171Z,6.70
2022-11-14T04:35:42.295Z,6.57
2022-11-14T04:38:10.892Z,6.17
2022-11-14T04:40:40.222Z,5.80
2022-11-14T04:43:08.130Z,6.13
2022-11-14T04:45:36.057Z,5.97
2022-11-14T04:48:04.102Z,6.40
2022-11-14T04:50:32.038Z,5.70
2022-11-14T04:52:59.915Z,5.63
2022-11-14T04:55:27.832Z,5.10
2022-11-14T04:57:57.620Z,5.80
2022-11-14T05:00:25.739Z,5.23
2022-11-14T05:02:53.629Z,5.40
2022-11-14T05:05:21.545Z,5.73
2022-11-14T05:07:49.555Z,5.77
2022-11-14T05:10:17.562Z,5.47
2022-11-14T05:12:45.452Z,5.53
2022-11-14T05:15:14.696Z,5.90
2022-11-14T05:17:42.596Z,6.40
2022-11-14T05:20:11.874Z,6.47
2022-11-14T05:22:39.810Z,6.33
2022-11-14T05:25:08.820Z,6.47
2022-11-14T05:27:36.726Z,6.67
2022-11-14T05:30:05.118Z,6.90
2022-11-14T05:32:34.473Z,7.43
2022-11-14T05:35:02.476Z,6.30
2022-11-14T05:37:30.408Z,6.37
2022-11-14T05:39:58.346Z,6.63
2022-11-14T05:42:26.244Z,6.43
2022-11-14T05:44:54.113Z,6.27
2022-11-14T05:47:22.097Z,6.27
2022-11-14T05:49:51.437Z,6.97
2022-11-14T05:52:19.343Z,6.50
2022-11-14T05:54:47.215Z,6.27
2022-11-14T05:57:15.109Z,6.77
2022-11-14T05:59:42.994Z,6.77
2022-11-14T06:02:11.079Z,7.03
2022-11-14T06:04:39.210Z,7.00
2022-11-14T06:07:08.541Z,7.77
2022-11-14T06:09:36.473Z,6.43
2022-11-14T06:12:06.339Z,7.20
2022-11-14T06:14:34.306Z,7.60
2022-11-14T06:17:02.299Z,7.20
2022-11-14T06:19:30.212Z,7.33
2022-11-14T06:21:58.139Z,7.00
2022-11-14T06:24:27.555Z,7.60
2022-11-14T06:26:55.547Z,7.87
2022-11-14T06:29:23.506Z,7.13
2022-11-14T06:31:51.467Z,7.40
2022-11-14T06:34:19.499Z,7.40
2022-11-14T06:36:47.424Z,7.20
2022-11-14T06:39:15.363Z,7.47
2022-11-14T06:41:44.666Z,7.07
2022-11-14T06:44:12.595Z,7.03
2022-11-14T06:46:40.469Z,6.30
2022-11-14T06:49:08.376Z,6.60
2022-11-14T06:51:36.332Z,6.40
2022-11-14T06:54:04.280Z,6.03
2022-11-14T06:56:32.126Z,5.77
2022-11-14T06:59:01.422Z,5.77
2022-11-14T07:01:29.471Z,5.57
2022-11-14T07:03:58.752Z,5.43
2022-11-14T07:06:27.789Z,5.23
2022-11-14T07:08:55.748Z,5.10
2022-11-14T07:11:25.814Z,5.00
2022-11-14T07:13:54.006Z,4.53
2022-11-14T07:16:25.268Z,4.70
2022-11-14T07:18:53.131Z,4.47
2022-11-14T07:21:21.151Z,3.93
2022-11-14T07:23:49.448Z,3.50
2022-11-14T07:26:17.345Z,2.60
2022-11-14T07:28:48.146Z,2.70
2022-11-14T07:31:20.434Z,2.50
2022-11-14T07:33:49.789Z,2.53
2022-11-14T07:36:17.957Z,2.30
2022-11-14T07:38:45.983Z,2.40
2022-11-14T07:41:14.658Z,2.70
2022-11-14T07:43:42.746Z,2.40
2022-11-14T07:46:13.001Z,2.57
2022-11-14T07:48:41.383Z,2.80
2022-11-14T07:51:11.753Z,2.90
2022-11-14T07:53:39.661Z,2.30
2022-11-14T07:56:12.374Z,2.43
2022-11-14T07:58:41.054Z,2.27
2022-11-14T08:01:09.529Z,2.53
2022-11-14T08:03:42.341Z,2.70
2022-11-14T08:06:15.404Z,2.80
2022-11-14T08:08:43.436Z,2.10
2022-11-14T08:11:11.436Z,2.00
2022-11-14T08:13:39.341Z,1.97
2022-11-14T08:16:12.304Z,1.50
2022-11-14T08:18:41.064Z,1.10
2022-11-14T08:21:09.100Z,1.20
2022-11-14T08:23:38.851Z,1.00
2022-11-14T08:26:07.042Z,1.00
2022-11-14T08:28:35.169Z,1.13
2022-11-14T08:31:03.423Z,1.37
2022-11-14T08:33:32.166Z,1.60
2022-11-14T08:36:02.449Z,1.43
2022-11-14T08:38:30.524Z,1.13
2022-11-14T08:41:00.703Z,1.47
2022-11-14T08:43:28.718Z,1.20
2022-11-14T08:46:01.644Z,1.50
2022-11-14T08:48:30.525Z,1.50
2022-11-14T08:50:58.983Z,1.40
2022-11-14T08:53:26.953Z,1.33
2022-11-14T08:55:54.916Z,1.47
2022-11-14T08:58:24.158Z,0.93
2022-11-14T09:00:52.638Z,0.83
2022-11-14T09:03:20.565Z,0.90
2022-11-14T09:05:53.055Z,1.00
2022-11-14T09:08:21.187Z,0.70
2022-11-14T09:10:49.155Z,1.13
2022-11-14T09:13:17.079Z,0.90
2022-11-14T09:15:46.697Z,0.80
2022-11-14T09:18:15.396Z,1.07
2022-11-14T09:20:43.336Z,1.40
2022-11-14T09:23:11.517Z,1.00
2022-11-14T09:25:39.524Z,1.57
2022-11-14T09:28:07.965Z,1.77
2022-11-14T09:30:36.028Z,1.20
2022-11-14T09:33:11.463Z,1.30
2022-11-14T09:35:40.049Z,1.63
2022-11-14T09:38:08.986Z,1.60
2022-11-14T09:40:45.550Z,1.20
2022-11-14T09:43:21.273Z,1.67
2022-11-14T09:45:50.258Z,1.50
2022-11-14T09:48:20.898Z,1.50
2022-11-14T09:50:51.471Z,1.30
2022-11-14T09:53:21.537Z,1.30
2022-11-14T09:55:49.408Z,1.13
2022-11-14T09:58:19.439Z,1.30
2022-11-14T10:00:49.433Z,1.00
2022-11-14T10:03:21.506Z,1.47
2022-11-14T10:06:01.872Z,0.80
2022-11-14T10:08:43.301Z,1.50
2022-11-14T10:11:11.923Z,1.83
2022-11-14T10:14:15.680Z,1.40
2022-11-14T10:16:45.846Z,1.20
2022-11-14T10:19:20.002Z,1.10
2022-11-14T10:21:54.590Z,1.50
2022-11-14T10:24:48.833Z,1.50
2022-11-14T10:27:19.326Z,2.40
2022-11-14T10:29:57.419Z,2.67
2022-11-14T10:32:31.928Z,1.40
2022-11-14T10:35:03.255Z,1.30
2022-11-14T10:37:33.071Z,1.20
2022-11-14T10:40:04.658Z,0.83
2022-11-14T10:42:33.928Z,1.70
2022-11-14T10:45:04.377Z,1.40
2022-11-14T10:47:36.973Z,1.50
2022-11-14T10:50:16.119Z,1.50
2022-11-14T10:52:44.027Z,1.63
2022-11-14T10:55:15.007Z,1.20
2022-11-14T10:57:43.364Z,1.30
2022-11-14T11:00:13.607Z,1.70
2022-11-14T11:02:49.394Z,1.13
2022-11-14T11:05:19.831Z,2.00
2022-11-14T11:11:11.096Z,1.07
2022-11-14T11:13:43.483Z,0.93
2022-11-14T11:16:12.080Z,1.10
2022-11-14T11:18:40.070Z,1.03
2022-11-14T11:21:11.299Z,0.90
2022-11-14T11:23:49.526Z,1.23
2022-11-14T11:26:19.887Z,1.20
2022-11-14T11:29:03.131Z,0.90
2022-11-14T11:31:36.658Z,1.03
2022-11-14T11:34:04.570Z,1.33
2022-11-14T11:36:33.833Z,1.43
2022-11-14T11:39:01.763Z,1.30
2022-11-14T11:44:19.923Z,1.03
2022-11-14T11:46:50.405Z,1.10
2022-11-14T11:49:19.894Z,1.10
2022-11-14T11:51:49.171Z,1.10
2022-11-14T11:54:18.600Z,1.13
2022-11-14T11:56:47.345Z,1.20
2022-11-14T11:59:22.831Z,1.07
2022-11-14T12:01:51.838Z,1.00
2022-11-14T12:04:19.788Z,1.20
2022-11-14T12:06:51.236Z,1.10
2022-11-14T12:09:20.481Z,1.27
2022-11-14T12:11:50.362Z,1.30
2022-11-14T12:14:31.741Z,0.90
2022-11-14T12:17:21.676Z,0.97
2022-11-14T12:19:56.929Z,0.90
2022-11-14T12:22:35.558Z,0.77
2022-11-14T12:25:10.202Z,0.93
2022-11-14T12:27:50.650Z,0.90
2022-11-14T12:30:20.152Z,1.00
2022-11-14T12:32:50.008Z,1.20
2022-11-14T12:35:20.818Z,1.13
2022-11-14T12:37:55.415Z,0.90
2022-11-14T12:40:32.123Z,1.40
2022-11-14T12:43:00.391Z,1.50
2022-11-14T12:45:59.868Z,0.90
2022-11-14T12:48:32.384Z,1.00
2022-11-14T12:51:00.739Z,0.93
2022-11-14T12:53:45.320Z,0.70
2022-11-14T12:56:31.596Z,0.83
2022-11-14T12:59:26.270Z,0.90
2022-11-14T13:02:03.525Z,0.80
2022-11-14T13:04:35.739Z,1.13
2022-11-14T13:07:21.901Z,0.90
2022-11-14T13:10:14.252Z,0.73
2022-11-14T13:13:00.641Z,0.60
2022-11-14T13:15:50.071Z,0.50
2022-11-14T13:18:39.901Z,1.53
2022-11-14T13:21:34.637Z,1.27
2022-11-14T13:24:02.567Z,1.53
2022-11-14T13:26:48.166Z,1.00
2022-11-14T13:29:51.585Z,1.30
2022-11-14T13:32:52.745Z,0.97
2022-11-14T13:35:25.174Z,0.70
2022-11-14T13:38:00.885Z,0.90
2022-11-14T13:40:29.609Z,1.00
2022-11-14T13:43:01.615Z,1.07
2022-11-14T13:45:50.302Z,4.27
2022-11-14T13:48:51.015Z,0.90
2022-11-14T13:51:42.308Z,1.30
2022-11-14T13:54:17.172Z,1.00
2022-11-14T13:56:53.263Z,1.30
2022-11-14T13:59:37.226Z,0.83
2022-11-14T14:02:28.769Z,1.17
2022-11-14T14:05:02.346Z,1.10
2022-11-14T14:07:34.850Z,0.93
2022-11-14T14:10:07.085Z,1.03
2022-11-14T14:12:50.163Z,0.80
2022-11-14T14:15:23.429Z,0.80
2022-11-14T14:17:57.419Z,1.13
2022-11-14T14:20:32.550Z,0.70
2022-11-14T14:23:03.219Z,0.80
2022-11-14T14:25:34.515Z,0.67
2022-11-14T14:28:08.285Z,0.70
2022-11-14T14:30:37.573Z,1.00
2022-11-14T14:33:12.003Z,0.93
2022-11-14T14:35:41.142Z,0.90
2022-11-14T14:38:12.764Z,1.00
2022-11-14T14:40:41.838Z,1.10
2022-11-14T14:43:15.291Z,1.20
2022-11-14T14:45:48.837Z,1.30
2022-11-14T14:48:17.583Z,0.80
2022-11-14T14:50:50.376Z,1.20
2022-11-14T14:53:20.691Z,1.10
2022-11-14T14:55:53.490Z,1.10
2022-11-14T14:58:26.273Z,1.10
2022-11-14T15:00:56.804Z,1.20
2022-11-14T15:03:24.745Z,1.70
2022-11-14T15:05:59.516Z,1.00
2022-11-14T15:08:28.454Z,1.10
2022-11-14T15:10:58.902Z,1.60
2022-11-14T15:13:27.471Z,1.60
2022-11-14T15:15:57.168Z,1.47
2022-11-14T15:18:26.538Z,1.80
2022-11-14T15:21:17.698Z,1.60
2022-11-14T15:23:45.856Z,1.50
2022-11-14T15:26:16.097Z,1.33
2022-11-14T15:28:44.666Z,1.00
2022-11-14T15:31:21.153Z,1.30
2022-11-14T15:34:02.022Z,1.20
2022-11-14T15:36:31.944Z,2.00
2022-11-14T15:39:01.240Z,2.07
2022-11-14T15:41:29.823Z,2.00
2022-11-14T15:44:02.007Z,2.40
2022-11-14T15:46:43.220Z,2.20
2022-11-14T15:49:18.032Z,1.70
2022-11-14T15:51:46.932Z,2.10
2022-11-14T15:54:24.832Z,2.23
2022-11-14T15:56:53.367Z,1.60
2022-11-14T15:59:21.390Z,1.70
2022-11-14T16:01:52.344Z,1.50
2022-11-14T16:04:21.012Z,1.43
2022-11-14T16:06:49.232Z,1.33
2022-11-14T16:09:18.325Z,1.50
2022-11-14T16:11:48.597Z,1.43
2022-11-14T16:14:17.130Z,1.50
2022-11-14T16:16:45.044Z,1.73
2022-11-14T16:19:16.125Z,1.80
2022-11-14T16:21:44.692Z,2.10
2022-11-14T16:24:15.180Z,1.73
2022-11-14T16:26:43.115Z,1.80
2022-11-14T16:29:12.669Z,1.70
2022-11-14T16:31:40.671Z,1.77
2022-11-14T16:34:08.990Z,1.70
2022-11-14T16:36:38.333Z,1.67
2022-11-14T16:39:11.325Z,30.20
2022-11-14T16:41:39.265Z,9.47
2022-11-14T16:44:07.298Z,2.50
2022-11-14T16:46:35.259Z,29.73
2022-11-14T16:49:03.457Z,223.93
2022-11-14T16:51:48.524Z,363.87
2022-11-14T16:54:18.985Z,117.83
2022-11-14T16:56:46.951Z,59.23
2022-11-14T16:59:15.067Z,86.03
2022-11-14T17:01:43.292Z,5.80
2022-11-14T17:04:11.231Z,34.73
2022-11-14T17:06:39.165Z,95.10
2022-11-14T17:09:07.162Z,115.83
2022-11-14T17:11:36.606Z,27.63
2022-11-14T17:14:04.524Z,72.93
2022-11-14T17:16:32.508Z,124.30
2022-11-14T17:19:01.713Z,127.93
2022-11-14T17:21:29.657Z,18.80
2022-11-14T17:23:57.731Z,61.50
2022-11-14T17:26:25.649Z,11.97
2022-11-14T17:28:54.927Z,24.67
2022-11-14T17:31:22.903Z,12.00
2022-11-14T17:33:54.222Z,37.40
2022-11-14T17:36:22.212Z,35.63
2022-11-14T17:38:50.165Z,26.33
2022-11-14T17:41:18.118Z,11.50
2022-11-14T17:43:46.031Z,7.30
2022-11-14T17:46:16.285Z,6.53
2022-11-14T17:48:44.731Z,3.10
2022-11-14T17:51:13.853Z,19.63
2022-11-14T17:53:41.793Z,9.17
2022-11-14T17:56:11.333Z,6.10
2022-11-14T17:58:39.283Z,9.10
2022-11-14T18:01:10.965Z,3.93
2022-11-14T18:03:40.310Z,4.60
2022-11-14T18:06:09.176Z,4.67
2022-11-14T18:08:37.189Z,4.30
2022-11-14T18:11:05.677Z,7.23
2022-11-14T18:13:33.637Z,5.70
2022-11-14T18:16:02.572Z,4.60
2022-11-14T18:18:32.144Z,4.80
2022-11-14T18:21:07.303Z,4.70
2022-11-14T18:23:36.051Z,2.50
2022-11-14T18:26:10.346Z,2.80
2022-11-14T18:28:38.351Z,8.53
2022-11-14T18:31:07.845Z,3.23
2022-11-14T18:33:36.644Z,5.13
2022-11-14T18:36:08.291Z,3.87
2022-11-14T18:38:36.168Z,2.43
2022-11-14T18:41:04.789Z,2.10
2022-11-14T18:43:34.173Z,4.10
2022-11-14T18:46:06.750Z,3.77
2022-11-14T18:48:34.790Z,2.47
2022-11-14T18:51:03.069Z,2.10
2022-11-14T18:53:35.510Z,3.27
2022-11-14T18:56:05.045Z,2.27
2022-11-14T18:58:33.067Z,1.87
2022-11-14T19:01:01.497Z,2.70
2022-11-14T19:03:30.137Z,1.80
2022-11-14T19:06:02.131Z,2.00
2022-11-14T19:08:30.074Z,1.90
2022-11-14T19:11:02.981Z,2.17
2022-11-14T19:13:31.227Z,1.77
2022-11-14T19:16:02.580Z,1.83
2022-11-14T19:18:30.888Z,1.50
2022-11-14T19:20:59.454Z,1.50
2022-11-14T19:23:27.477Z,1.80
2022-11-14T19:25:59.659Z,6.00
2022-11-14T19:28:29.291Z,6.30
2022-11-14T19:31:01.873Z,4.57
2022-11-14T19:33:30.303Z,28.07
2022-11-14T19:35:58.555Z,19.07
2022-11-14T19:38:26.598Z,16.27
2022-11-14T19:40:54.658Z,28.67
2022-11-14T19:43:22.657Z,25.23
2022-11-14T19:45:52.033Z,29.90
2022-11-14T19:48:19.987Z,12.40
2022-11-14T19:50:47.871Z,25.37
2022-11-14T19:53:15.826Z,17.27
2022-11-14T19:55:43.712Z,58.23
2022-11-14T19:58:11.644Z,30.93
2022-11-14T20:00:39.552Z,55.90
2022-11-14T20:03:08.807Z,46.03
2022-11-14T20:05:38.476Z,15.97
2022-11-14T20:08:07.047Z,21.40
2022-11-14T20:10:47.637Z,5.83
2022-11-14T20:13:15.834Z,12.03
2022-11-14T20:15:43.837Z,43.10
2022-11-14T20:18:13.577Z,38.73
2022-11-14T20:20:41.535Z,11.97
2022-11-14T20:23:09.686Z,7.37
2022-11-14T20:25:38.215Z,7.03
2022-11-14T20:28:08.075Z,39.13
2022-11-14T20:30:39.601Z,66.27
2022-11-14T20:33:07.773Z,95.43
2022-11-14T20:35:38.125Z,29.30
2022-11-14T20:38:06.001Z,6.80
2022-11-14T20:40:33.919Z,3.23
2022-11-14T20:43:01.930Z,8.93
2022-11-14T20:45:29.848Z,3.80
2022-11-14T20:47:57.713Z,5.63
2022-11-14T20:50:25.688Z,5.77
2022-11-14T20:52:54.989Z,5.50
2022-11-14T20:55:23.032Z,2.83
2022-11-14T20:57:51.000Z,5.50
2022-11-14T21:00:20.444Z,2.90
2022-11-14T21:02:48.357Z,1.90
2022-11-14T21:05:16.311Z,1.67
2022-11-14T21:07:44.283Z,1.90
2022-11-14T21:10:31.202Z,1.60
2022-11-14T21:13:16.642Z,1.90
2022-11-14T21:15:44.577Z,1.70
2022-11-14T21:18:12.412Z,1.70
2022-11-14T21:20:40.329Z,1.80
2022-11-14T21:23:08.569Z,1.97
2022-11-14T21:25:37.826Z,2.13
2022-11-14T21:28:05.798Z,1.57
2022-11-14T21:30:34.451Z,1.73
2022-11-14T21:33:02.401Z,2.07
2022-11-14T21:35:32.327Z,10.47
2022-11-14T21:38:00.501Z,2.03
2022-11-14T21:40:28.390Z,2.23
2022-11-14T21:42:57.653Z,1.60
2022-11-14T21:45:25.515Z,1.57
2022-11-14T21:47:53.446Z,2.33
2022-11-14T21:50:21.358Z,2.00
2022-11-14T21:52:49.227Z,2.20
2022-11-14T21:55:17.159Z,1.73
2022-11-14T21:57:45.098Z,1.77
2022-11-14T22:00:15.617Z,1.63
2022-11-14T22:03:01.443Z,1.80
2022-11-14T22:05:29.426Z,1.80
2022-11-14T22:07:57.353Z,1.80
2022-11-14T22:10:25.238Z,1.60
2022-11-14T22:12:53.118Z,1.97
2022-11-14T22:15:22.496Z,1.50
2022-11-14T22:17:50.445Z,1.77
2022-11-14T22:20:18.518Z,1.70
2022-11-14T22:22:46.400Z,1.67
2022-11-14T22:25:14.353Z,1.60
2022-11-14T22:27:42.262Z,1.60
2022-11-14T22:30:11.700Z,1.37
2022-11-14T22:32:40.987Z,1.80
2022-11-14T22:35:09.061Z,1.50
2022-11-14T22:37:37.034Z,1.37
2022-11-14T22:40:05.661Z,1.60
2022-11-14T22:42:33.509Z,1.33
2022-11-14T22:45:01.419Z,1.50
2022-11-14T22:47:29.302Z,1.60
2022-11-14T22:49:58.539Z,1.40
2022-11-14T22:52:26.367Z,1.20
2022-11-14T22:54:54.242Z,1.77
2022-11-14T22:57:22.104Z,1.87
2022-11-14T22:59:49.957Z,1.40
2022-11-14T23:02:17.815Z,1.50
2022-11-14T23:04:45.785Z,1.73
2022-11-14T23:07:15.095Z,1.30
2022-11-14T23:09:43.671Z,1.37
2022-11-14T23:12:11.677Z,1.00
2022-11-14T23:14:39.537Z,1.00
2022-11-14T23:17:07.508Z,1.33
2022-11-14T23:19:35.462Z,1.40
2022-11-14T23:22:03.534Z,1.00
2022-11-14T23:24:32.820Z,1.70
2022-11-14T23:27:00.770Z,2.27
2022-11-14T23:29:28.695Z,2.87
2022-11-14T23:31:56.594Z,1.30
2022-11-14T23:34:24.508Z,1.97
2022-11-14T23:36:52.494Z,1.20
2022-11-14T23:39:20.420Z,1.37
2022-11-14T23:41:49.672Z,1.20
2022-11-14T23:44:17.642Z,1.80
2022-11-14T23:46:45.526Z,1.20
2022-11-14T23:49:13.422Z,1.77
2022-11-14T23:51:41.577Z,1.20
2022-11-14T23:54:09.436Z,1.87
2022-11-14T23:56:37.523Z,0.90
2022-11-14T23:59:06.967Z,0.93
